Time;durP1;ratioP1;P1;durP2;ratioP2;P2;SDS_P1;SDS_P2;PMS_P1;PMS_P2;Temp;Humidity;BMP_temperature;BMP_pressure;BME280_temperature;BME280_humidity;BME280_pressure;Samples;Min_cycle;Max_cycle;Signal;HPM_P1;HPM_P2
2021/11/21 00:02:13;;;;;;;5.90;5.40;;;17.80;62.20;;;;;;5051779;28;20240;-61
2021/11/21 00:04:39;;;;;;;6.00;5.50;;;17.80;62.30;;;;;;5052099;28;20228;-61
2021/11/21 00:07:07;;;;;;;5.47;5.00;;;17.80;62.20;;;;;;5052470;28;20175;-61
2021/11/21 00:09:33;;;;;;;6.75;6.15;;;17.80;62.30;;;;;;5050887;28;20211;-61
2021/11/21 00:11:58;;;;;;;5.68;5.18;;;17.70;62.20;;;;;;5052284;28;20178;-61
2021/11/21 00:14:24;;;;;;;5.97;5.47;;;17.80;62.20;;;;;;5052442;28;20171;-61
2021/11/21 00:16:52;;;;;;;6.07;5.57;;;17.80;62.20;;;;;;5051226;28;20171;-61
2021/11/21 00:19:18;;;;;;;5.50;5.10;;;17.70;62.10;;;;;;5052047;28;20196;-61
2021/11/21 00:21:43;;;;;;;5.53;5.13;;;17.70;62.10;;;;;;5051900;28;20539;-62
2021/11/21 00:24:09;;;;;;;5.90;5.40;;;17.70;62.20;;;;;;5051369;28;20171;-62
2021/11/21 00:26:34;;;;;;;6.13;5.60;;;17.70;62.10;;;;;;5051626;28;20178;-62
2021/11/21 00:29:00;;;;;;;5.70;5.25;;;17.70;62.10;;;;;;5052063;28;20186;-62
2021/11/21 00:31:25;;;;;;;6.15;5.65;;;17.70;62.10;;;;;;5051212;28;20174;-62
2021/11/21 00:33:51;;;;;;;6.03;5.53;;;17.70;62.20;;;;;;5051972;28;20221;-62
2021/11/21 00:36:16;;;;;;;5.95;5.45;;;17.70;62.20;;;;;;5051513;28;20175;-61
2021/11/21 00:38:42;;;;;;;5.88;5.43;;;17.60;62.10;;;;;;5051677;28;20177;-62
2021/11/21 00:41:07;;;;;;;6.00;5.50;;;17.60;62.00;;;;;;5051789;28;20175;-61
2021/11/21 00:43:33;;;;;;;6.20;5.70;;;17.60;62.10;;;;;;5051017;28;20196;-61
2021/11/21 00:45:59;;;;;;;5.82;5.32;;;17.70;62.10;;;;;;5051845;28;20565;-59
2021/11/21 00:48:25;;;;;;;5.72;5.22;;;17.60;62.10;;;;;;5051879;28;20177;-62
2021/11/21 00:51:02;;;;;;;5.93;5.53;;;17.60;62.10;;;;;;5050873;28;20284;-60
2021/11/21 00:53:28;;;;;;;5.60;5.10;;;17.60;62.10;;;;;;5051783;28;20174;-61
2021/11/21 00:56:01;;;;;;;6.15;5.63;;;17.60;62.10;;;;;;5051765;28;20236;-62
2021/11/21 00:58:26;;;;;;;5.38;4.97;;;17.60;62.10;;;;;;5051214;28;20230;-62
2021/11/21 01:00:52;;;;;;;6.10;5.60;;;17.60;62.10;;;;;;5051593;28;20175;-61
2021/11/21 01:03:19;;;;;;;5.82;5.32;;;17.60;62.10;;;;;;5051696;28;20609;-61
2021/11/21 01:05:45;;;;;;;5.10;4.70;;;17.60;62.00;;;;;;5050718;28;20179;-61
2021/11/21 01:08:11;;;;;;;6.22;5.63;;;17.60;62.00;;;;;;5051751;28;20192;-61
2021/11/21 01:10:36;;;;;;;5.70;5.20;;;17.60;62.10;;;;;;5051519;28;20333;-60
2021/11/21 01:13:02;;;;;;;5.53;5.13;;;17.60;62.10;;;;;;5051004;28;20262;-62
2021/11/21 01:15:28;;;;;;;5.47;5.07;;;17.60;62.10;;;;;;5051733;28;20203;-61
2021/11/21 01:17:54;;;;;;;5.90;5.40;;;17.60;62.10;;;;;;5051561;28;20177;-62
2021/11/21 01:20:21;;;;;;;5.15;4.75;;;17.60;62.10;;;;;;5050981;28;20179;-61
2021/11/21 01:22:46;;;;;;;6.18;5.68;;;17.60;62.10;;;;;;5053233;28;20175;-61
2021/11/21 01:25:12;;;;;;;5.68;5.28;;;17.60;62.10;;;;;;5055615;28;20653;-61
2021/11/21 01:27:38;;;;;;;5.07;4.72;;;17.50;62.00;;;;;;5054543;28;20262;-62
2021/11/21 01:30:05;;;;;;;5.63;5.22;;;17.60;62.00;;;;;;5055426;28;20219;-62
2021/11/21 01:32:30;;;;;;;5.97;5.47;;;17.50;62.10;;;;;;5054395;28;20584;-62
2021/11/21 01:34:56;;;;;;;5.80;5.30;;;17.50;62.00;;;;;;5055066;28;20216;-62
2021/11/21 01:37:21;;;;;;;5.68;5.18;;;17.50;62.10;;;;;;5055048;28;20170;-61
2021/11/21 01:39:47;;;;;;;5.95;5.45;;;17.50;62.00;;;;;;5054092;28;20180;-62
2021/11/21 01:42:12;;;;;;;5.43;5.00;;;17.50;62.00;;;;;;5054953;28;20179;-61
2021/11/21 01:44:38;;;;;;;6.43;5.93;;;17.50;62.00;;;;;;5054905;28;20566;-60
2021/11/21 01:47:05;;;;;;;5.10;4.70;;;17.50;62.00;;;;;;5054199;28;20292;-61
2021/11/21 01:49:30;;;;;;;5.10;4.70;;;17.50;62.00;;;;;;5054754;28;20700;-60
2021/11/21 01:51:56;;;;;;;6.15;5.65;;;17.50;62.00;;;;;;5054953;28;20179;-61
2021/11/21 01:54:21;;;;;;;6.32;5.72;;;17.50;62.00;;;;;;5054381;28;20661;-61
2021/11/21 01:56:47;;;;;;;5.60;5.15;;;17.50;61.90;;;;;;5054549;28;20208;-63
2021/11/21 01:59:13;;;;;;;5.65;5.15;;;17.50;62.00;;;;;;5054863;28;20622;-62
2021/11/21 02:01:38;;;;;;;5.93;5.43;;;17.40;61.90;;;;;;5053802;28;20179;-61
2021/11/21 02:04:04;;;;;;;6.30;5.80;;;17.50;61.90;;;;;;5054923;28;20179;-62
2021/11/21 02:06:29;;;;;;;5.75;5.25;;;17.40;61.90;;;;;;5054384;28;20175;-61
2021/11/21 02:08:56;;;;;;;5.72;5.25;;;17.40;61.90;;;;;;5054041;28;20167;-62
2021/11/21 02:11:22;;;;;;;5.95;5.45;;;17.40;61.90;;;;;;5054809;28;20222;-62
2021/11/21 02:13:49;;;;;;;5.80;5.40;;;17.40;62.80;;;;;;5054389;28;20213;-62
2021/11/21 02:16:18;;;;;;;5.80;5.30;;;17.40;61.90;;;;;;5053774;28;20183;-61
2021/11/21 02:18:46;;;;;;;6.05;5.55;;;17.40;61.80;;;;;;5054115;28;20190;-61
2021/11/21 02:21:11;;;;;;;6.07;5.30;;;17.40;61.80;;;;;;5054280;28;20254;-61
2021/11/21 02:23:37;;;;;;;5.63;5.22;;;17.40;61.80;;;;;;5053367;28;20305;-62
2021/11/21 02:26:02;;;;;;;5.30;4.90;;;17.40;61.90;;;;;;5054381;28;20642;-62
2021/11/21 02:28:28;;;;;;;5.18;4.78;;;17.40;61.80;;;;;;5054388;28;20206;-62
2021/11/21 02:30:54;;;;;;;5.32;4.93;;;17.40;61.90;;;;;;5053317;28;20267;-62
2021/11/21 02:33:20;;;;;;;5.65;5.25;;;17.40;61.90;;;;;;5052674;28;20256;-62
2021/11/21 02:35:47;;;;;;;5.53;5.13;;;17.40;61.90;;;;;;5052929;28;20180;-62
2021/11/21 02:38:14;;;;;;;5.85;5.35;;;17.40;61.90;;;;;;5054189;28;20237;-63
2021/11/21 02:40:39;;;;;;;6.05;5.55;;;17.40;61.90;;;;;;5053706;28;20205;-61
2021/11/21 02:43:05;;;;;;;5.80;5.30;;;17.40;61.90;;;;;;5053218;28;20493;-61
2021/11/21 02:45:30;;;;;;;5.90;5.40;;;17.40;61.80;;;;;;5053494;28;20266;-60
2021/11/21 02:47:56;;;;;;;5.88;5.38;;;17.40;61.80;;;;;;5053783;28;20174;-61
2021/11/21 02:50:22;;;;;;;6.35;5.85;;;17.30;61.80;;;;;;5052756;28;20210;-60
2021/11/21 02:52:49;;;;;;;6.35;5.85;;;17.40;61.90;;;;;;5053755;28;21129;-60
2021/11/21 02:55:14;;;;;;;5.75;5.35;;;17.30;61.80;;;;;;5053770;28;20175;-61
2021/11/21 02:57:40;;;;;;;6.10;5.70;;;17.30;61.80;;;;;;5052309;28;20229;-62
2021/11/21 03:00:07;;;;;;;5.88;5.47;;;17.30;61.80;;;;;;5053401;28;20604;-60
2021/11/21 03:02:32;;;;;;;6.18;5.68;;;17.30;61.80;;;;;;5053007;28;20179;-62
2021/11/21 03:04:58;;;;;;;5.88;5.38;;;17.30;61.80;;;;;;5052501;28;20263;-61
2021/11/21 03:07:23;;;;;;;6.15;5.65;;;17.30;61.80;;;;;;5053287;28;20261;-61
2021/11/21 03:09:49;;;;;;;6.00;5.40;;;17.30;61.80;;;;;;5053147;28;20568;-60
2021/11/21 03:12:17;;;;;;;5.90;5.40;;;17.30;61.80;;;;;;5052553;28;20187;-61
2021/11/21 03:14:43;;;;;;;6.45;5.85;;;17.30;61.80;;;;;;5051757;28;20532;-61
2021/11/21 03:17:10;;;;;;;6.43;5.93;;;17.30;61.80;;;;;;5053062;28;20707;-62
2021/11/21 03:19:35;;;;;;;6.07;5.57;;;17.30;61.80;;;;;;5051939;28;20179;-62
2021/11/21 03:22:01;;;;;;;6.40;5.90;;;17.30;62.70;;;;;;5053268;28;20182;-62
2021/11/21 03:24:26;;;;;;;6.20;5.70;;;17.30;61.80;;;;;;5052972;28;20175;-62
2021/11/21 03:26:52;;;;;;;6.45;5.95;;;17.30;61.80;;;;;;5051962;28;20183;-62
2021/11/21 03:29:17;;;;;;;6.18;5.68;;;17.30;61.80;;;;;;5053031;28;20625;-62
2021/11/21 03:31:43;;;;;;;6.28;5.78;;;17.30;61.80;;;;;;5052565;28;20572;-62
2021/11/21 03:34:08;;;;;;;6.28;5.78;;;17.30;61.80;;;;;;5052170;28;20220;-63
2021/11/21 03:36:34;;;;;;;5.80;5.35;;;17.20;61.80;;;;;;5052716;28;20665;-62
2021/11/21 03:39:00;;;;;;;6.85;6.25;;;17.30;61.90;;;;;;5052555;28;20203;-62
2021/11/21 03:41:26;;;;;;;6.60;6.03;;;17.20;61.70;;;;;;5052435;28;20653;-62
2021/11/21 03:43:51;;;;;;;6.68;6.07;;;17.20;61.80;;;;;;5052245;28;20183;-62
2021/11/21 03:46:17;;;;;;;6.47;5.88;;;17.20;61.80;;;;;;5051097;28;20566;-61
2021/11/21 03:48:42;;;;;;;6.82;6.20;;;17.20;61.80;;;;;;5052278;28;20561;-62
2021/11/21 03:51:08;;;;;;;6.95;6.35;;;17.20;61.80;;;;;;5052636;28;20214;-61
2021/11/21 03:53:33;;;;;;;6.88;6.28;;;17.20;61.70;;;;;;5051699;28;20171;-62
2021/11/21 03:55:59;;;;;;;6.95;6.35;;;17.20;62.60;;;;;;5052595;28;20217;-63
2021/11/21 03:58:24;;;;;;;6.60;6.00;;;17.20;61.70;;;;;;5052547;28;20202;-63
2021/11/21 04:00:50;;;;;;;6.85;6.15;;;17.20;61.80;;;;;;5051319;28;20167;-61
2021/11/21 04:03:19;;;;;;;6.70;6.10;;;17.20;61.70;;;;;;5052280;28;20210;-62
2021/11/21 04:05:45;;;;;;;6.18;5.68;;;17.20;61.70;;;;;;5052033;28;20672;-61
2021/11/21 04:08:11;;;;;;;6.38;5.88;;;17.20;61.80;;;;;;5051553;28;20266;-61
2021/11/21 04:10:36;;;;;;;6.43;5.93;;;17.20;61.70;;;;;;5051945;28;20318;-60
2021/11/21 04:13:02;;;;;;;6.57;5.97;;;17.20;61.80;;;;;;5052339;28;20178;-62
2021/11/21 04:15:28;;;;;;;6.85;6.18;;;17.20;61.70;;;;;;5051382;28;20187;-63
2021/11/21 04:17:53;;;;;;;6.35;5.85;;;17.10;61.70;;;;;;5052425;28;20182;-62
2021/11/21 04:20:19;;;;;;;6.45;5.95;;;17.20;61.80;;;;;;5052116;28;20707;-60
2021/11/21 04:22:45;;;;;;;6.45;5.85;;;17.10;61.70;;;;;;5051172;28;20175;-61
2021/11/21 04:25:10;;;;;;;5.72;5.32;;;17.20;61.90;;;;;;5051905;28;20244;-62
2021/11/21 04:27:36;;;;;;;6.72;6.13;;;17.20;61.80;;;;;;5051990;28;20190;-62
2021/11/21 04:30:03;;;;;;;6.00;5.50;;;17.20;61.80;;;;;;5051207;28;20211;-61
2021/11/21 04:32:30;;;;;;;6.32;5.72;;;17.10;61.80;;;;;;5051902;28;20278;-61
2021/11/21 04:34:55;;;;;;;6.40;5.90;;;17.10;61.80;;;;;;5052080;28;20202;-63
2021/11/21 04:37:21;;;;;;;6.22;5.72;;;17.10;61.80;;;;;;5051338;28;20229;-62
2021/11/21 04:39:47;;;;;;;6.50;5.95;;;17.10;61.80;;;;;;5051561;28;20178;-62
2021/11/21 04:42:12;;;;;;;6.93;6.32;;;17.10;61.80;;;;;;5051993;28;20262;-62
2021/11/21 04:44:38;;;;;;;6.20;5.70;;;17.10;61.80;;;;;;5050947;28;20175;-60
2021/11/21 04:47:03;;;;;;;5.93;5.43;;;17.10;61.90;;;;;;5051534;28;20219;-61
2021/11/21 04:49:29;;;;;;;5.95;5.45;;;17.10;61.90;;;;;;5050933;28;20206;-61
2021/11/21 04:51:54;;;;;;;6.10;5.50;;;17.10;61.90;;;;;;5052019;28;20171;-62
2021/11/21 04:54:22;;;;;;;6.20;5.70;;;17.10;61.90;;;;;;5051688;28;20190;-63
2021/11/21 04:56:50;;;;;;;5.80;5.32;;;17.10;61.90;;;;;;5051234;28;20209;-62
2021/11/21 04:59:15;;;;;;;6.32;5.82;;;17.10;61.90;;;;;;5055816;28;20179;-63
2021/11/21 05:01:41;;;;;;;6.18;5.72;;;17.10;62.00;;;;;;5055448;28;20665;-62
2021/11/21 05:04:07;;;;;;;6.30;5.80;;;17.10;61.90;;;;;;5055607;28;20265;-63
2021/11/21 05:06:32;;;;;;;6.20;5.70;;;17.10;61.90;;;;;;5055432;28;20643;-62
2021/11/21 05:09:02;;;;;;;6.55;6.00;;;17.10;62.00;;;;;;5055862;28;20178;-61
2021/11/21 05:11:27;;;;;;;6.35;5.85;;;17.10;61.90;;;;;;5055058;28;20568;-60
2021/11/21 05:13:53;;;;;;;5.65;5.25;;;17.10;61.90;;;;;;5055276;28;20689;-61
2021/11/21 05:16:18;;;;;;;5.30;4.90;;;17.00;61.80;;;;;;5055739;28;20270;-61
2021/11/21 05:18:44;;;;;;;5.93;5.43;;;17.10;61.90;;;;;;5054551;28;20171;-62
2021/11/21 05:21:09;;;;;;;5.53;5.03;;;17.00;61.80;;;;;;5055327;28;20569;-60
2021/11/21 05:23:35;;;;;;;6.22;5.72;;;17.10;61.90;;;;;;5055211;28;20206;-61
2021/11/21 05:26:00;;;;;;;6.22;5.72;;;17.10;61.90;;;;;;5054766;28;20256;-61
2021/11/21 05:28:26;;;;;;;5.60;5.20;;;17.00;61.80;;;;;;5055082;28;20262;-61
2021/11/21 05:30:51;;;;;;;5.15;4.75;;;17.00;61.90;;;;;;5054980;28;20242;-61
2021/11/21 05:33:17;;;;;;;5.43;5.03;;;17.00;61.80;;;;;;5054503;28;20179;-61
2021/11/21 05:35:45;;;;;;;5.60;5.15;;;17.00;61.80;;;;;;5054784;28;20537;-61
2021/11/21 05:38:11;;;;;;;5.20;4.80;;;17.00;61.90;;;;;;5055284;28;20167;-62
2021/11/21 05:40:36;;;;;;;5.35;4.95;;;17.00;61.80;;;;;;5054209;28;20228;-61
2021/11/21 05:43:02;;;;;;;5.97;5.47;;;17.00;61.80;;;;;;5054949;28;20193;-60
2021/11/21 05:45:28;;;;;;;5.53;5.13;;;17.00;61.80;;;;;;5055009;28;20235;-60
2021/11/21 05:47:54;;;;;;;4.75;4.45;;;17.00;61.80;;;;;;5053934;28;20531;-60
2021/11/21 05:50:20;;;;;;;5.75;5.25;;;17.00;61.90;;;;;;5054942;28;20218;-60
2021/11/21 05:52:46;;;;;;;5.43;5.03;;;17.00;61.80;;;;;;5054042;28;20164;-61
2021/11/21 05:55:12;;;;;;;5.07;4.68;;;17.00;61.90;;;;;;5054700;28;20549;-61
2021/11/21 05:57:37;;;;;;;5.72;5.28;;;17.00;61.90;;;;;;5054522;28;20223;-62
2021/11/21 06:00:04;;;;;;;5.32;4.90;;;17.00;61.90;;;;;;5054120;28;20190;-62
2021/11/21 06:02:29;;;;;;;4.88;4.47;;;17.00;61.90;;;;;;5054755;28;20199;-61
2021/11/21 06:04:55;;;;;;;5.05;4.65;;;17.00;61.90;;;;;;5054812;28;20206;-61
2021/11/21 06:07:20;;;;;;;4.97;4.57;;;17.00;61.90;;;;;;5053775;28;20163;-61
2021/11/21 06:09:46;;;;;;;5.72;5.25;;;16.90;61.80;;;;;;5054142;28;20210;-60
2021/11/21 06:12:11;;;;;;;4.85;4.45;;;17.00;61.90;;;;;;5054463;28;20171;-61
2021/11/21 06:14:37;;;;;;;5.78;5.20;;;16.90;61.90;;;;;;5053761;28;20175;-61
2021/11/21 06:17:04;;;;;;;4.75;4.38;;;16.90;61.90;;;;;;5054624;28;20241;-61
2021/11/21 06:19:30;;;;;;;4.93;4.60;;;16.90;61.90;;;;;;5054372;28;20179;-61
2021/11/21 06:21:55;;;;;;;5.10;4.70;;;16.90;61.90;;;;;;5053659;28;20171;-61
2021/11/21 06:24:21;;;;;;;5.72;5.22;;;16.90;61.90;;;;;;5054158;28;20548;-61
2021/11/21 06:26:47;;;;;;;5.05;4.68;;;16.90;61.90;;;;;;5053856;28;20164;-60
2021/11/21 06:29:12;;;;;;;4.80;4.43;;;16.90;61.90;;;;;;5053617;28;20579;-60
2021/11/21 06:31:37;;;;;;;4.68;4.38;;;16.90;61.90;;;;;;5054029;28;20202;-60
2021/11/21 06:34:03;;;;;;;4.97;4.57;;;16.90;61.90;;;;;;5053965;28;20639;-62
2021/11/21 06:36:28;;;;;;;4.65;4.35;;;16.90;61.90;;;;;;5053035;28;20189;-60
2021/11/21 06:38:54;;;;;;;5.32;4.93;;;16.90;62.00;;;;;;5054028;28;20182;-62
2021/11/21 06:41:20;;;;;;;4.63;4.22;;;16.90;61.90;;;;;;5053885;28;20167;-60
2021/11/21 06:43:45;;;;;;;4.57;4.28;;;16.90;62.00;;;;;;5053023;28;20182;-61
2021/11/21 06:46:11;;;;;;;4.07;3.78;;;16.90;62.00;;;;;;5053633;28;20705;-60
2021/11/21 06:48:36;;;;;;;4.50;4.20;;;16.90;62.10;;;;;;5053700;28;20187;-59
2021/11/21 06:51:02;;;;;;;4.50;4.20;;;16.90;62.00;;;;;;5053066;28;20211;-59
2021/11/21 06:53:27;;;;;;;4.70;4.30;;;16.90;62.00;;;;;;5053580;28;20748;-61
2021/11/21 06:55:53;;;;;;;4.70;4.30;;;16.90;62.10;;;;;;5053155;28;20270;-62
2021/11/21 06:58:18;;;;;;;4.60;4.30;;;16.90;62.10;;;;;;5052700;28;20206;-61
2021/11/21 07:00:44;;;;;;;4.60;4.25;;;16.90;62.00;;;;;;5053398;28;20175;-61
2021/11/21 07:03:09;;;;;;;4.68;4.28;;;16.90;62.00;;;;;;5052885;28;20236;-61
2021/11/21 07:05:35;;;;;;;4.30;4.00;;;16.80;62.00;;;;;;5053324;28;20579;-61
2021/11/21 07:08:01;;;;;;;4.72;4.43;;;16.80;62.00;;;;;;5053513;28;20264;-61
2021/11/21 07:10:26;;;;;;;4.80;4.40;;;16.80;62.00;;;;;;5052699;28;20203;-62
2021/11/21 07:12:52;;;;;;;4.45;4.05;;;16.80;62.00;;;;;;5052964;28;20286;-62
2021/11/21 07:15:17;;;;;;;4.00;3.70;;;16.80;62.00;;;;;;5053475;28;20638;-61
2021/11/21 07:17:43;;;;;;;4.15;3.85;;;16.90;62.10;;;;;;5052438;28;20194;-62
2021/11/21 07:20:15;;;;;;;4.30;3.90;;;16.80;62.10;;;;;;5052255;28;20202;-61
2021/11/21 07:22:42;;;;;;;4.00;3.70;;;16.80;62.10;;;;;;5052962;28;20176;-63
2021/11/21 07:25:08;;;;;;;4.28;3.97;;;16.80;62.10;;;;;;5052325;28;20309;-62
2021/11/21 07:27:33;;;;;;;4.15;3.85;;;16.80;62.10;;;;;;5052940;28;20657;-62
2021/11/21 07:30:00;;;;;;;3.90;3.60;;;16.80;62.20;;;;;;5052878;28;20293;-62
2021/11/21 07:32:25;;;;;;;3.45;3.25;;;16.80;62.20;;;;;;5052362;28;20266;-62
2021/11/21 07:34:51;;;;;;;3.78;3.50;;;16.80;62.10;;;;;;5052699;28;20261;-62
2021/11/21 07:37:16;;;;;;;3.53;3.33;;;16.90;62.30;;;;;;5052908;28;20178;-61
2021/11/21 07:39:42;;;;;;;3.55;3.35;;;16.90;62.50;;;;;;5051523;28;20171;-61
2021/11/21 07:42:08;;;;;;;4.20;3.90;;;17.10;62.30;;;;;;5052922;28;20194;-63
2021/11/21 07:44:33;;;;;;;3.15;2.95;;;17.20;62.00;;;;;;5052385;28;20237;-61
2021/11/21 07:46:59;;;;;;;3.03;2.83;;;17.40;61.90;;;;;;5051821;28;20311;-61
2021/11/21 07:49:24;;;;;;;3.40;3.10;;;17.60;61.50;;;;;;5052478;28;20301;-60
2021/11/21 07:51:50;;;;;;;3.10;2.90;;;17.70;61.10;;;;;;5052067;28;20186;-60
2021/11/21 07:54:15;;;;;;;2.80;2.60;;;17.90;60.60;;;;;;5051604;28;20167;-62
2021/11/21 07:56:41;;;;;;;2.97;2.78;;;18.10;60.20;;;;;;5052031;28;20244;-62
2021/11/21 07:59:09;;;;;;;2.60;2.40;;;18.20;60.00;;;;;;5052370;28;20614;-62
2021/11/21 08:01:34;;;;;;;2.92;2.72;;;18.20;59.80;;;;;;5051298;28;20175;-61
2021/11/21 08:04:00;;;;;;;3.10;2.90;;;18.40;59.80;;;;;;5052381;28;20174;-62
2021/11/21 08:06:25;;;;;;;2.80;2.60;;;18.40;59.50;;;;;;5051486;28;20179;-60
2021/11/21 08:08:51;;;;;;;2.90;2.70;;;18.50;59.30;;;;;;5051820;28;20713;-59
2021/11/21 08:11:16;;;;;;;2.60;2.25;;;18.70;59.30;;;;;;5052172;28;20221;-60
2021/11/21 08:13:42;;;;;;;3.17;2.67;;;18.70;59.30;;;;;;5051275;28;20175;-59
2021/11/21 08:16:07;;;;;;;2.65;2.45;;;18.70;59.30;;;;;;5052042;28;20187;-60
2021/11/21 08:18:33;;;;;;;2.50;2.30;;;18.70;59.50;;;;;;5051556;28;20171;-60
2021/11/21 08:20:58;;;;;;;2.75;2.28;;;18.70;59.60;;;;;;5051122;28;20183;-61
2021/11/21 08:23:24;;;;;;;2.90;2.60;;;18.70;59.70;;;;;;5051856;28;20229;-61
2021/11/21 08:25:51;;;;;;;2.40;2.20;;;18.70;59.70;;;;;;5051734;28;20698;-61
2021/11/21 08:28:16;;;;;;;2.65;2.45;;;18.70;59.70;;;;;;5051118;28;20684;-60
2021/11/21 08:30:44;;;;;;;2.78;2.15;;;18.70;59.60;;;;;;5051288;28;20242;-62
2021/11/21 08:33:10;;;;;;;2.65;2.35;;;18.70;59.80;;;;;;5051798;28;20178;-62
2021/11/21 08:35:36;;;;;;;3.08;2.28;;;18.60;60.10;;;;;;5050713;28;20179;-61
2021/11/21 08:38:02;;;;;;;2.67;2.35;;;18.60;60.40;;;;;;5051494;28;20175;-61
2021/11/21 08:40:29;;;;;;;6.43;2.45;;;18.50;60.80;;;;;;5051784;28;20548;-60
2021/11/21 08:42:55;;;;;;;2.85;2.47;;;18.40;61.00;;;;;;5050998;28;20187;-60
2021/11/21 08:45:21;;;;;;;2.85;2.58;;;18.40;61.20;;;;;;5051431;28;20288;-60
2021/11/21 08:47:46;;;;;;;2.70;2.20;;;18.30;61.40;;;;;;5051172;28;20588;-61
2021/11/21 08:50:12;;;;;;;3.47;2.80;;;18.20;61.70;;;;;;5050637;28;20719;-60
2021/11/21 08:52:37;;;;;;;3.88;2.28;;;18.20;62.10;;;;;;5051176;28;20191;-60
2021/11/21 08:55:03;;;;;;;6.25;2.58;;;18.20;62.40;;;;;;5051707;28;20178;-60
2021/11/21 08:57:29;;;;;;;3.00;2.38;;;18.20;62.50;;;;;;5050722;28;20220;-62
2021/11/21 08:59:54;;;;;;;2.63;2.30;;;18.10;62.40;;;;;;5051527;28;20171;-60
2021/11/21 09:02:20;;;;;;;2.83;2.22;;;18.20;62.10;;;;;;5051265;28;20179;-64
2021/11/21 09:04:45;;;;;;;3.08;2.10;;;18.20;62.00;;;;;;5050399;28;20657;-61
2021/11/21 09:07:11;;;;;;;2.33;2.13;;;18.20;62.20;;;;;;5051223;28;20203;-61
2021/11/21 09:09:36;;;;;;;2.65;2.38;;;18.20;62.30;;;;;;5050581;28;20211;-62
2021/11/21 09:12:02;;;;;;;3.20;2.28;;;18.10;62.40;;;;;;5050951;28;20604;-61
2021/11/21 09:14:28;;;;;;;3.92;2.50;;;18.10;62.50;;;;;;5051375;28;20669;-61
2021/11/21 09:16:54;;;;;;;2.20;2.00;;;18.10;62.90;;;;;;5050440;28;20199;-61
2021/11/21 09:19:19;;;;;;;2.00;1.90;;;18.10;62.70;;;;;;5051406;28;20214;-61
2021/11/21 09:21:48;;;;;;;5.32;2.70;;;18.00;62.70;;;;;;5050937;28;20309;-60
2021/11/21 09:24:13;;;;;;;2.15;1.75;;;18.00;62.70;;;;;;5050545;28;20171;-60
2021/11/21 09:26:39;;;;;;;2.72;2.17;;;17.90;63.70;;;;;;5051039;28;20641;-60
2021/11/21 09:29:04;;;;;;;2.58;2.13;;;17.90;62.90;;;;;;5051253;28;20179;-60
2021/11/21 09:31:30;;;;;;;2.47;2.30;;;17.90;63.10;;;;;;5050441;28;20693;-63
2021/11/21 09:33:55;;;;;;;2.38;2.17;;;17.90;63.30;;;;;;5051201;28;20545;-63
2021/11/21 09:36:21;;;;;;;2.15;1.83;;;17.90;63.20;;;;;;5050980;28;20167;-63
2021/11/21 09:38:47;;;;;;;2.13;1.98;;;17.80;63.10;;;;;;5050231;28;20172;-64
2021/11/21 09:41:13;;;;;;;3.85;2.25;;;17.80;63.20;;;;;;5051285;28;20667;-63
2021/11/21 09:43:40;;;;;;;2.83;2.20;;;17.70;63.10;;;;;;5052483;28;20676;-64
2021/11/21 09:46:07;;;;;;;2.20;2.00;;;17.70;63.20;;;;;;5058454;28;20246;-62
2021/11/21 09:48:33;;;;;;;2.08;1.90;;;17.70;63.20;;;;;;5064036;28;20182;-62
2021/11/21 09:50:59;;;;;;;2.97;1.83;;;17.70;63.20;;;;;;5074390;28;20210;-62
2021/11/21 09:53:24;;;;;;;2.00;1.80;;;17.60;63.20;;;;;;5059480;28;20627;-62
2021/11/21 09:55:50;;;;;;;2.83;2.00;;;17.70;63.30;;;;;;5054445;28;20179;-63
2021/11/21 09:58:15;;;;;;;2.22;2.00;;;17.60;63.30;;;;;;5054631;28;20224;-63
2021/11/21 10:00:41;;;;;;;2.22;1.60;;;17.60;63.30;;;;;;5057494;28;20171;-62
2021/11/21 10:03:07;;;;;;;4.20;2.20;;;17.60;64.10;;;;;;5074349;28;20171;-62
2021/11/21 10:05:43;;;;;;;2.30;2.00;;;17.60;63.30;;;;;;5074053;28;20174;-62
2021/11/21 10:08:13;;;;;;;2.60;1.75;;;17.50;63.30;;;;;;5073902;28;20249;-62
2021/11/21 10:10:42;;;;;;;2.25;2.00;;;17.50;63.30;;;;;;5074080;28;20210;-63
2021/11/21 10:13:31;;;;;;;3.10;2.00;;;17.50;63.30;;;;;;5061256;28;20190;-62
2021/11/21 10:15:58;;;;;;;3.95;1.88;;;17.50;63.40;;;;;;5054565;28;20175;-62
2021/11/21 10:18:24;;;;;;;2.00;1.90;;;17.60;63.30;;;;;;5063332;28;20179;-62
2021/11/21 10:20:49;;;;;;;4.13;1.80;;;17.60;63.30;;;;;;5073285;28;20186;-62
2021/11/21 10:23:15;;;;;;;3.58;2.00;;;17.60;63.20;;;;;;5074146;28;20174;-62
2021/11/21 10:25:49;;;;;;;2.10;2.00;;;17.60;63.20;;;;;;5073680;28;20171;-62
2021/11/21 10:28:25;;;;;;;2.42;1.70;;;17.60;63.10;;;;;;5073366;28;20269;-62
2021/11/21 10:30:58;;;;;;;4.03;1.73;;;17.50;63.10;;;;;;5073538;28;20664;-63
2021/11/21 10:33:28;;;;;;;2.13;1.90;;;17.50;63.10;;;;;;5065151;28;20179;-63
2021/11/21 10:36:07;;;;;;;3.97;1.85;;;17.50;63.10;;;;;;5049507;28;20265;-63
2021/11/21 10:38:55;;;;;;;1.70;1.60;;;17.50;63.90;;;;;;5069295;28;20179;-63
2021/11/21 10:41:23;;;;;;;3.42;1.70;;;17.50;63.10;;;;;;5033044;28;20175;-62
2021/11/21 10:44:00;;;;;;;1.85;1.75;;;17.50;63.10;;;;;;5045115;28;20681;-63
2021/11/21 10:46:53;;;;;;;1.98;1.70;;;17.50;63.10;;;;;;5059347;28;20560;-62
2021/11/21 10:49:32;;;;;;;2.67;1.70;;;17.50;63.10;;;;;;5061849;28;20254;-62
2021/11/21 10:51:57;;;;;;;2.80;2.05;;;17.50;63.00;;;;;;5053984;28;20225;-62
2021/11/21 10:54:24;;;;;;;3.38;1.88;;;17.50;62.90;;;;;;5068431;28;20167;-62
2021/11/21 10:56:52;;;;;;;1.73;1.52;;;17.50;63.00;;;;;;5052499;28;20634;-63
2021/11/21 10:59:51;;;;;;;1.80;1.50;;;17.50;62.90;;;;;;5053566;28;20245;-62
2021/11/21 11:02:16;;;;;;;1.70;1.60;;;17.40;62.90;;;;;;5068629;28;20194;-63
2021/11/21 11:05:15;;;;;;;2.08;1.63;;;17.50;62.90;;;;;;5073175;28;20240;-62
2021/11/21 11:07:47;;;;;;;2.63;1.73;;;17.50;62.80;;;;;;5061845;28;20567;-62
2021/11/21 11:10:32;;;;;;;1.98;1.48;;;17.50;62.60;;;;;;5052551;28;20202;-62
2021/11/21 11:12:59;;;;;;;1.92;1.73;;;17.50;62.60;;;;;;5053109;28;20551;-62
2021/11/21 11:15:25;;;;;;;1.80;1.60;;;17.50;62.50;;;;;;5053334;28;20182;-63
2021/11/21 11:17:51;;;;;;;4.05;1.73;;;17.60;62.50;;;;;;5055641;28;20174;-62
2021/11/21 11:20:18;;;;;;;1.98;1.70;;;17.60;62.30;;;;;;5073215;28;20214;-63
2021/11/21 11:22:45;;;;;;;2.28;1.60;;;17.60;62.30;;;;;;5072678;28;20689;-62
2021/11/21 11:25:24;;;;;;;1.83;1.73;;;17.60;62.30;;;;;;5059217;28;20591;-61
2021/11/21 11:28:26;;;;;;;2.78;2.10;;;17.60;62.20;;;;;;5053299;28;20237;-63
2021/11/21 11:30:56;;;;;;;2.13;1.92;;;17.60;62.10;;;;;;5050923;28;20213;-63
2021/11/21 11:33:33;;;;;;;2.70;1.73;;;17.60;62.10;;;;;;5052942;28;20194;-64
2021/11/21 11:35:58;;;;;;;1.60;1.50;;;17.60;62.00;;;;;;5052678;28;20187;-63
2021/11/21 11:38:31;;;;;;;2.00;1.55;;;17.70;62.00;;;;;;5051801;28;20178;-63
2021/11/21 11:40:59;;;;;;;1.60;1.50;;;17.70;62.00;;;;;;5052675;28;20262;-62
2021/11/21 11:43:29;;;;;;;3.60;1.60;;;17.70;62.20;;;;;;5052425;28;20167;-64
2021/11/21 11:45:59;;;;;;;2.72;1.55;;;17.70;62.30;;;;;;5051880;28;20294;-63
2021/11/21 11:48:44;;;;;;;2.78;1.30;;;17.70;62.60;;;;;;5053015;28;20266;-61
2021/11/21 11:51:15;;;;;;;3.05;1.70;;;17.70;62.70;;;;;;5051248;28;20222;-61
2021/11/21 11:53:52;;;;;;;2.78;1.70;;;17.70;62.50;;;;;;5068920;28;20178;-62
2021/11/21 11:56:31;;;;;;;2.78;1.65;;;17.70;62.60;;;;;;5072880;28;20174;-65
2021/11/21 11:58:58;;;;;;;4.47;1.80;;;17.70;62.70;;;;;;5062232;28;20185;-62
2021/11/21 12:01:51;;;;;;;2.55;1.60;;;17.70;62.50;;;;;;5052866;28;20183;-63
2021/11/21 12:04:16;;;;;;;3.67;1.65;;;17.70;62.60;;;;;;5051649;28;20183;-64
2021/11/21 12:06:50;;;;;;;2.53;1.40;;;17.60;62.40;;;;;;5051142;28;20178;-62
2021/11/21 12:09:16;;;;;;;6.20;1.90;;;17.70;62.60;;;;;;5052671;28;20638;-62
2021/11/21 12:11:59;;;;;;;4.15;1.90;;;17.60;63.40;;;;;;5052159;28;20223;-62
2021/11/21 12:14:28;;;;;;;4.80;1.58;;;17.60;62.60;;;;;;5051621;28;20175;-62
2021/11/21 12:17:01;;;;;;;3.08;1.50;;;17.60;62.70;;;;;;5052166;28;20178;-65
2021/11/21 12:19:46;;;;;;;3.22;1.30;;;17.60;62.80;;;;;;5051055;28;20187;-65
2021/11/21 12:22:32;;;;;;;7.93;2.05;;;17.60;62.90;;;;;;5052377;28;20175;-65
2021/11/21 12:25:02;;;;;;;2.80;1.70;;;17.60;62.90;;;;;;5052099;28;20518;-66
2021/11/21 12:27:29;;;;;;;3.17;1.67;;;17.70;62.80;;;;;;5051336;28;20183;-67
2021/11/21 12:30:08;;;;;;;4.15;1.50;;;17.80;62.90;;;;;;5052173;28;20226;-68
2021/11/21 12:32:34;;;;;;;3.88;1.50;;;17.80;62.80;;;;;;5051791;28;20633;-68
2021/11/21 12:35:02;;;;;;;4.60;1.42;;;17.90;63.10;;;;;;5049896;28;20175;-67
2021/11/21 12:37:30;;;;;;;2.38;1.27;;;18.00;63.20;;;;;;5051888;28;20591;-68
2021/11/21 12:40:08;;;;;;;5.40;1.52;;;18.10;62.60;;;;;;5051751;28;20660;-67
2021/11/21 12:42:34;;;;;;;2.22;1.17;;;18.30;62.20;;;;;;5050772;28;20178;-67
2021/11/21 12:45:16;;;;;;;4.70;2.05;;;18.50;61.60;;;;;;5051652;28;20187;-67
2021/11/21 12:47:43;;;;;;;2.17;1.48;;;18.70;61.20;;;;;;5050973;28;20183;-69
2021/11/21 12:50:30;;;;;;;1.95;1.00;;;18.70;60.80;;;;;;5051562;28;20297;-68